Time;durP1;ratioP1;P1;durP2;ratioP2;P2;SDS_P1;SDS_P2;PMS_P1;PMS_P2;Temp;Humidity;BMP_temperature;BMP_pressure;BME280_temperature;BME280_humidity;BME280_pressure;Samples;Min_cycle;Max_cycle;Signal;HPM_P1;HPM_P2
2021/07/01 00:00:13;;;;;;;19.30;11.30;;;;;;;25.11;63.26;100509.81;5090737;28;20186;-64
2021/07/01 00:02:39;;;;;;;18.13;11.80;;;;;;;25.07;65.08;100512.97;5090208;28;20195;-64
2021/07/01 00:05:06;;;;;;;19.43;11.00;;;;;;;24.99;62.95;100511.28;5090959;28;20183;-64
2021/07/01 00:07:32;;;;;;;21.93;10.10;;;;;;;24.72;64.15;100464.22;5086223;28;20659;-64
2021/07/01 00:09:57;;;;;;;16.27;9.10;;;;;;;24.63;63.01;100450.41;5089425;28;20189;-64
2021/07/01 00:12:24;;;;;;;26.83;9.73;;;;;;;25.03;61.98;100520.25;5094344;28;20264;-64
2021/07/01 00:14:49;;;;;;;19.83;9.77;;;;;;;25.05;62.46;100512.75;5087660;28;20226;-64
2021/07/01 00:17:15;;;;;;;21.13;9.40;;;;;;;25.07;62.35;100520.72;5074340;28;20222;-64
2021/07/01 00:19:41;;;;;;;18.93;8.33;;;;;;;25.05;58.65;100507.09;5085056;28;20233;-64
2021/07/01 00:22:06;;;;;;;20.87;9.20;;;;;;;25.06;61.20;100514.28;5074054;28;20203;-66
2021/07/01 00:24:31;;;;;;;22.70;7.70;;;;;;;25.08;57.91;100505.25;5074203;28;20191;-64
2021/07/01 00:26:57;;;;;;;21.97;8.43;;;;;;;24.88;59.00;100474.56;5074331;28;20198;-64
2021/07/01 00:29:22;;;;;;;24.53;6.33;;;;;;;25.11;56.08;100510.59;5074181;28;20203;-64
2021/07/01 00:31:48;;;;;;;20.43;7.37;;;;;;;25.15;57.48;100513.91;5078266;28;20191;-64
2021/07/01 00:34:14;;;;;;;20.27;6.17;;;;;;;25.10;51.78;100499.78;5073515;28;20175;-64
2021/07/01 00:36:40;;;;;;;19.17;7.03;;;;;;;25.20;55.36;100509.47;5074080;28;20186;-64
2021/07/01 00:39:05;;;;;;;27.80;6.67;;;;;;;25.08;54.34;100510.91;5073874;28;20645;-64
2021/07/01 00:41:31;;;;;;;20.53;6.27;;;;;;;24.82;54.27;100514.31;5073837;28;20175;-64
2021/07/01 00:43:57;;;;;;;20.77;5.83;;;;;;;24.74;54.11;100529.63;5084843;28;20267;-64
2021/07/01 00:46:22;;;;;;;20.93;6.33;;;;;;;24.26;53.46;100462.38;5094087;28;20179;-64
2021/07/01 00:48:48;;;;;;;26.93;7.07;;;;;;;24.58;53.56;100519.19;5094058;28;20175;-64
2021/07/01 00:51:14;;;;;;;22.93;5.60;;;;;;;24.80;49.13;100536.75;5092985;28;20178;-64
2021/07/01 00:53:40;;;;;;;20.73;6.30;;;;;;;24.77;54.66;100520.06;5093637;28;20174;-64
2021/07/01 00:56:07;;;;;;;20.30;6.03;;;;;;;24.77;54.42;100517.22;5093685;28;20260;-64
2021/07/01 00:58:34;;;;;;;21.67;6.23;;;;;;;24.91;53.61;100544.34;5093824;28;20204;-64
2021/07/01 01:01:04;;;;;;;33.07;6.83;;;;;;;24.56;54.70;100488.56;5093868;28;20209;-64
2021/07/01 01:03:35;;;;;;;25.97;5.73;;;;;;;24.58;51.24;100490.88;5093400;28;20632;-64
2021/07/01 01:06:02;;;;;;;22.33;5.53;;;;;;;24.78;52.92;100511.00;5093843;28;20214;-64
2021/07/01 01:08:28;;;;;;;18.70;5.87;;;;;;;25.03;53.36;100542.94;5077749;28;20180;-64
2021/07/01 01:10:54;;;;;;;21.37;5.87;;;;;;;24.73;52.98;100492.03;5073477;28;20706;-64
2021/07/01 01:13:26;;;;;;;19.03;5.87;;;;;;;24.92;53.18;100541.00;5073097;28;20179;-64
2021/07/01 01:15:59;;;;;;;16.93;5.37;;;;;;;24.81;53.94;100546.00;5089238;28;20175;-64
2021/07/01 01:18:26;;;;;;;19.80;5.60;;;;;;;24.93;52.95;100559.53;5093453;28;20615;-64
2021/07/01 01:20:53;;;;;;;24.90;5.87;;;;;;;24.92;53.79;100558.00;5093253;28;20222;-64
2021/07/01 01:23:20;;;;;;;18.53;5.70;;;;;;;24.86;53.41;100550.84;5091885;28;20195;-64
2021/07/01 01:25:50;;;;;;;24.20;6.17;;;;;;;24.56;54.36;100502.72;5092254;28;20178;-64
2021/07/01 01:28:17;;;;;;;23.17;5.97;;;;;;;25.03;54.90;100557.88;5093308;28;20171;-64
2021/07/01 01:30:43;;;;;;;20.73;5.23;;;;;;;24.72;52.65;100510.31;5093164;28;20220;-64
2021/07/01 01:33:10;;;;;;;22.03;5.87;;;;;;;25.08;54.37;100561.94;5093151;28;20171;-64
2021/07/01 01:35:36;;;;;;;23.10;5.37;;;;;;;24.86;53.10;100531.00;5093171;28;20550;-64
2021/07/01 01:38:02;;;;;;;28.77;5.57;;;;;;;24.77;48.09;100525.72;5092901;28;20181;-64
2021/07/01 01:40:28;;;;;;;23.60;5.77;;;;;;;25.11;50.82;100558.03;5093004;28;20183;-64
2021/07/01 01:42:54;;;;;;;21.97;4.73;;;;;;;24.96;48.79;100544.31;5092493;28;20579;-64
2021/07/01 01:45:20;;;;;;;16.70;5.40;;;;;;;25.18;49.31;100568.78;5093070;28;20182;-64
2021/07/01 01:47:49;;;;;;;20.23;5.53;;;;;;;24.85;51.01;100521.75;5093133;28;20667;-64
2021/07/01 01:50:19;;;;;;;19.80;5.13;;;;;;;25.24;46.45;100578.75;5092917;28;20261;-64
2021/07/01 01:52:46;;;;;;;19.30;4.53;;;;;;;24.81;47.11;100509.16;5092396;28;20179;-64
2021/07/01 01:55:13;;;;;;;19.80;4.40;;;;;;;25.40;45.80;100592.00;5092696;28;20269;-64
2021/07/01 01:57:50;;;;;;;16.27;4.20;;;;;;;25.06;45.29;100550.34;5092766;28;20182;-64
2021/07/01 02:00:20;;;;;;;20.83;4.67;;;;;;;25.41;46.39;100604.09;5092589;28;20174;-64
2021/07/01 02:02:46;;;;;;;18.63;4.30;;;;;;;25.38;46.29;100596.69;5092260;28;20719;-64
2021/07/01 02:05:13;;;;;;;19.00;4.87;;;;;;;25.50;48.75;100609.41;5092675;28;20656;-64
2021/07/01 02:07:39;;;;;;;17.07;4.30;;;;;;;25.53;48.35;100608.34;5092388;28;20187;-64
2021/07/01 02:10:11;;;;;;;24.37;5.27;;;;;;;25.56;50.03;100615.78;5092414;28;20182;-64
2021/07/01 02:12:37;;;;;;;39.33;7.40;;;;;;;25.53;48.46;100611.94;5092233;28;20178;-64
2021/07/01 02:15:04;;;;;;;25.50;5.73;;;;;;;25.51;45.68;100622.28;5092541;28;20187;-64
2021/07/01 02:17:33;;;;;;;25.00;5.40;;;;;;;25.57;46.92;100631.47;5092167;28;20175;-64
2021/07/01 02:19:59;;;;;;;24.93;4.90;;;;;;;25.19;48.34;100587.34;5091716;28;20319;-64
2021/07/01 02:22:24;;;;;;;21.20;4.10;;;;;;;25.45;44.49;100642.22;5091553;28;20696;-64
2021/07/01 02:24:49;;;;;;;22.03;4.50;;;;;;;25.48;45.64;100646.06;5092285;28;20183;-64
2021/07/01 02:27:15;;;;;;;22.17;3.97;;;;;;;25.48;46.58;100655.31;5092096;28;20253;-64
2021/07/01 02:29:40;;;;;;;14.07;4.43;;;;;;;25.51;48.61;100659.94;5092304;28;20179;-64
2021/07/01 02:32:07;;;;;;;17.77;4.03;;;;;;;25.45;44.70;100666.97;5091505;28;20666;-64
2021/07/01 02:34:32;;;;;;;24.43;4.73;;;;;;;24.94;45.04;100614.94;5091816;28;20299;-64
2021/07/01 02:36:58;;;;;;;34.03;6.40;;;;;;;25.15;45.37;100666.25;5091983;28;20204;-64
2021/07/01 02:39:23;;;;;;;26.57;4.60;;;;;;;25.14;45.72;100671.19;5091722;28;20213;-64
2021/07/01 02:41:49;;;;;;;22.10;4.87;;;;;;;25.07;45.22;100674.59;5091867;28;20210;-64
2021/07/01 02:44:15;;;;;;;22.00;4.73;;;;;;;25.06;44.87;100677.94;5077168;28;20654;-64
2021/07/01 02:46:40;;;;;;;20.00;4.80;;;;;;;25.06;45.55;100680.78;5071650;28;20657;-64
2021/07/01 02:49:05;;;;;;;26.17;4.87;;;;;;;25.19;45.58;100704.34;5071501;28;20179;-66
2021/07/01 02:51:31;;;;;;;14.63;4.70;;;;;;;24.84;45.76;100650.63;5070186;28;20222;-64
2021/07/01 02:53:57;;;;;;;27.97;5.37;;;;;;;24.70;46.07;100651.78;5071253;28;20222;-64
2021/07/01 02:56:22;;;;;;;23.97;5.30;;;;;;;24.74;46.73;100677.75;5077788;28;20677;-64
2021/07/01 02:58:49;;;;;;;23.23;5.43;;;;;;;24.72;47.40;100662.59;5071548;28;20254;-64
2021/07/01 03:01:15;;;;;;;18.33;5.63;;;;;;;25.11;46.67;100716.81;5071230;28;20179;-64
2021/07/01 03:03:41;;;;;;;18.70;6.63;;;;;;;25.08;46.88;100729.25;5070766;28;20191;-64
2021/07/01 03:06:07;;;;;;;28.40;10.77;;;;;;;25.05;47.15;100733.13;5071325;28;20195;-66
2021/07/01 03:08:32;;;;;;;23.60;9.53;;;;;;;25.02;47.56;100729.28;5091256;28;20254;-64
2021/07/01 03:10:58;;;;;;;21.97;7.00;;;;;;;24.93;48.91;100726.78;5091567;28;20183;-64
2021/07/01 03:13:23;;;;;;;16.33;5.73;;;;;;;24.91;49.89;100729.38;5091010;28;20171;-66
2021/07/01 03:15:48;;;;;;;20.97;6.00;;;;;;;24.44;51.62;100673.34;5076075;28;20183;-64
2021/07/01 03:18:14;;;;;;;21.20;6.10;;;;;;;24.67;52.76;100712.31;5072054;28;20221;-66
2021/07/01 03:20:39;;;;;;;22.00;6.97;;;;;;;24.79;53.62;100741.34;5090861;28;20275;-64
2021/07/01 03:23:05;;;;;;;15.40;5.63;;;;;;;24.65;53.96;100726.25;5090873;28;20199;-64
2021/07/01 03:25:30;;;;;;;15.23;6.30;;;;;;;24.87;52.95;100756.50;5091295;28;20178;-64
2021/07/01 03:27:56;;;;;;;23.87;7.63;;;;;;;24.90;53.16;100756.22;5091158;28;20178;-64
2021/07/01 03:30:22;;;;;;;24.47;9.27;;;;;;;24.99;53.56;100755.09;5091047;28;20208;-64
2021/07/01 03:32:48;;;;;;;22.93;9.63;;;;;;;24.87;54.19;100762.91;5072195;28;20266;-64
2021/07/01 03:35:13;;;;;;;22.27;9.50;;;;;;;24.94;54.43;100768.03;5069499;28;20326;-64
2021/07/01 03:37:39;;;;;;;21.97;9.07;;;;;;;24.99;55.56;100770.06;5070880;28;20171;-64
2021/07/01 03:40:08;;;;;;;22.07;8.50;;;;;;;24.94;55.87;100759.53;5070930;28;20248;-64
2021/07/01 03:42:34;;;;;;;24.00;9.03;;;;;;;24.72;56.43;100727.75;5070038;28;20766;-64
2021/07/01 03:44:59;;;;;;;21.60;9.17;;;;;;;25.11;55.87;100756.53;5090413;28;20222;-64
2021/07/01 03:47:25;;;;;;;30.23;9.63;;;;;;;25.20;55.90;100756.97;5090973;28;20175;-64
2021/07/01 03:49:51;;;;;;;22.57;8.77;;;;;;;25.24;56.67;100754.59;5083294;28;20184;-64
2021/07/01 03:52:17;;;;;;;19.83;9.03;;;;;;;25.29;57.67;100765.13;5070564;28;20704;-64
2021/07/01 03:54:42;;;;;;;22.90;9.03;;;;;;;25.24;58.12;100777.28;5074431;28;20274;-64
2021/07/01 03:57:08;;;;;;;19.80;9.60;;;;;;;25.26;58.36;100771.09;5090874;28;20202;-64
2021/07/01 03:59:33;;;;;;;14.77;9.77;;;;;;;24.91;58.15;100737.91;5090720;28;20175;-64
2021/07/01 04:02:00;;;;;;;23.13;10.20;;;;;;;25.20;58.55;100776.81;5090428;28;20183;-64
2021/07/01 04:04:26;;;;;;;16.90;9.67;;;;;;;25.17;59.08;100777.88;5090673;28;20174;-64
2021/07/01 04:06:51;;;;;;;18.60;9.83;;;;;;;24.82;58.86;100721.22;5090763;28;20257;-64
2021/07/01 04:09:17;;;;;;;24.70;10.40;;;;;;;25.28;59.47;100772.13;5090579;28;20660;-64
2021/07/01 04:11:42;;;;;;;22.70;11.13;;;;;;;25.31;59.76;100776.75;5090845;28;20670;-64
2021/07/01 04:14:08;;;;;;;28.47;10.87;;;;;;;25.41;59.94;100775.09;5090155;28;20173;-64
2021/07/01 04:16:33;;;;;;;19.80;10.57;;;;;;;25.53;60.02;100767.25;5090565;28;20191;-64
2021/07/01 04:18:59;;;;;;;23.67;11.17;;;;;;;25.58;60.06;100755.06;5090145;28;20741;-64
2021/07/01 04:21:28;;;;;;;17.93;9.93;;;;;;;25.66;60.00;100753.94;5083773;28;20239;-63
2021/07/01 04:23:58;;;;;;;16.60;9.20;;;;;;;25.38;60.23;100693.13;5090283;28;20630;-62
2021/07/01 04:26:25;;;;;;;21.00;9.60;;;;;;;25.81;60.58;100744.97;5106714;28;20186;-62
2021/07/01 04:28:51;;;;;;;21.93;10.20;;;;;;;25.98;60.50;100737.03;5091146;28;20687;-63
2021/07/01 04:31:17;;;;;;;26.37;10.70;;;;;;;26.12;60.42;100738.66;5090836;28;20194;-63
2021/07/01 04:33:43;;;;;;;21.87;10.83;;;;;;;25.95;60.19;100706.88;5090651;28;20191;-62
2021/07/01 04:36:08;;;;;;;23.17;12.27;;;;;;;26.34;60.65;100747.63;5090262;28;20645;-62
2021/07/01 04:38:34;;;;;;;23.07;10.93;;;;;;;26.41;60.75;100760.47;5090547;28;20175;-63
2021/07/01 04:40:59;;;;;;;18.00;10.73;;;;;;;26.50;60.56;100763.66;5090943;28;20652;-63
2021/07/01 04:43:25;;;;;;;23.07;11.80;;;;;;;26.63;60.47;100768.69;5090454;28;20199;-63
2021/07/01 04:45:50;;;;;;;16.57;11.17;;;;;;;26.56;60.33;100755.84;5070764;28;20195;-63
2021/07/01 04:48:16;;;;;;;20.77;10.63;;;;;;;26.81;59.89;100782.88;5068830;28;20297;-63
2021/07/01 04:50:41;;;;;;;18.13;11.13;;;;;;;26.45;59.87;100724.00;5074028;28;20209;-62
2021/07/01 04:53:07;;;;;;;19.27;11.67;;;;;;;26.91;60.03;100794.59;5077298;28;20257;-62
2021/07/01 04:55:32;;;;;;;21.60;11.70;;;;;;;26.89;60.54;100800.06;5079370;28;20194;-62
2021/07/01 04:57:58;;;;;;;16.47;11.30;;;;;;;26.97;59.71;100804.56;5078456;28;20207;-62
2021/07/01 05:00:23;;;;;;;25.70;13.00;;;;;;;27.01;60.79;100796.50;5082136;28;20195;-62
2021/07/01 05:02:49;;;;;;;19.30;13.27;;;;;;;27.06;59.39;100794.84;5090333;28;20222;-62
2021/07/01 05:05:14;;;;;;;19.53;11.50;;;;;;;26.78;59.18;100752.69;5083272;28;20252;-62
2021/07/01 05:07:47;;;;;;;22.40;11.90;;;;;;;27.06;59.39;100777.78;5086197;28;20686;-62
2021/07/01 05:10:16;;;;;;;19.97;11.70;;;;;;;27.27;59.60;100810.81;5080628;28;20232;-62
2021/07/01 05:12:42;;;;;;;18.13;11.83;;;;;;;27.35;59.83;100803.19;5075053;28;20183;-62
2021/07/01 05:15:08;;;;;;;16.60;12.20;;;;;;;27.44;59.48;100813.38;5086990;28;20240;-62
2021/07/01 05:17:34;;;;;;;18.10;11.40;;;;;;;27.48;59.08;100816.69;5078781;28;20191;-62
2021/07/01 05:19:59;;;;;;;15.73;11.77;;;;;;;27.15;59.42;100771.69;5088166;28;20597;-62
2021/07/01 05:22:25;;;;;;;23.83;12.53;;;;;;;27.29;59.06;100799.69;5085519;28;20691;-62
2021/07/01 05:24:51;;;;;;;15.80;11.67;;;;;;;27.56;58.77;100835.41;5082863;28;20237;-62
2021/07/01 05:27:16;;;;;;;18.73;11.43;;;;;;;27.55;58.89;100816.03;5078951;28;20236;-62
2021/07/01 05:29:42;;;;;;;18.63;11.63;;;;;;;27.56;58.10;100814.69;5083243;28;20640;-61
2021/07/01 05:32:07;;;;;;;14.57;11.10;;;;;;;27.60;57.82;100801.69;5081711;28;20210;-64
2021/07/01 05:34:33;;;;;;;17.27;11.73;;;;;;;27.64;57.55;100802.13;5081535;28;20191;-65
2021/07/01 05:36:59;;;;;;;19.65;11.82;;;;;;;27.53;57.97;100773.13;5081856;28;20187;-59
2021/07/01 05:39:24;;;;;;;19.65;13.50;;;;;;;27.74;57.73;100811.00;5073374;28;20385;-61
2021/07/01 05:41:50;;;;;;;19.10;13.20;;;;;;;27.62;58.15;100779.13;5070861;28;20198;-60
2021/07/01 05:44:16;;;;;;;19.17;11.88;;;;;;;27.84;57.86;100804.34;5076604;28;20744;-60
2021/07/01 05:46:41;;;;;;;19.15;11.82;;;;;;;27.58;57.44;100764.44;5077713;28;20274;-64
2021/07/01 05:49:07;;;;;;;15.27;11.43;;;;;;;27.82;57.87;100809.84;5076909;28;20261;-64
2021/07/01 05:51:35;;;;;;;17.55;12.20;;;;;;;27.76;57.90;100814.06;5091708;28;20252;-62
2021/07/01 05:54:10;;;;;;;18.60;11.90;;;;;;;27.70;57.54;100834.13;5080657;28;20645;-62
2021/07/01 05:56:38;;;;;;;17.55;11.90;;;;;;;27.72;58.08;100844.94;5088024;28;20535;-62
2021/07/01 05:59:08;;;;;;;18.77;11.73;;;;;;;27.84;57.95;100834.94;5104240;28;20618;-63
2021/07/01 06:01:36;;;;;;;17.50;11.95;;;;;;;28.02;57.90;100839.72;5083138;28;20254;-62
2021/07/01 06:04:06;;;;;;;16.38;11.60;;;;;;;28.12;56.91;100847.31;5087593;28;20643;-64
2021/07/01 06:06:36;;;;;;;15.85;11.32;;;;;;;28.19;56.62;100846.63;5087801;28;20368;-64
2021/07/01 06:09:06;;;;;;;20.73;13.48;;;;;;;27.94;57.14;100836.03;5072414;28;20603;-62
2021/07/01 06:11:36;;;;;;;17.40;11.85;;;;;;;28.13;57.00;100845.19;5084077;28;20179;-63
2021/07/01 06:14:05;;;;;;;18.92;11.95;;;;;;;28.22;57.65;100833.34;5088271;28;20604;-64
2021/07/01 06:16:32;;;;;;;16.17;11.65;;;;;;;28.37;56.37;100862.84;5090751;28;20617;-62
2021/07/01 06:19:01;;;;;;;15.02;12.00;;;;;;;27.88;56.69;100775.53;5085808;28;20222;-64
2021/07/01 06:21:27;;;;;;;19.98;12.13;;;;;;;28.40;55.77;100855.31;5087555;28;20194;-63
2021/07/01 06:23:53;;;;;;;17.17;11.50;;;;;;;28.26;56.25;100845.19;5078100;28;20696;-61
2021/07/01 06:26:25;;;;;;;19.65;12.30;;;;;;;28.11;55.87;100814.44;5069958;28;20272;-62
2021/07/01 06:28:51;;;;;;;18.88;11.43;;;;;;;28.55;55.71;100835.53;5077762;28;20229;-64
2021/07/01 06:31:16;;;;;;;20.13;11.50;;;;;;;28.77;55.62;100835.03;5077857;28;20668;-64
2021/07/01 06:33:42;;;;;;;17.63;11.93;;;;;;;28.96;56.48;100835.63;5084695;28;20652;-62
2021/07/01 06:36:09;;;;;;;18.73;11.35;;;;;;;29.09;54.59;100838.44;5083715;28;20194;-61
2021/07/01 06:38:42;;;;;;;20.70;12.18;;;;;;;29.16;54.05;100847.06;5085522;28;20240;-64
2021/07/01 06:41:09;;;;;;;15.18;11.55;;;;;;;29.07;54.75;100847.53;5075673;28;20188;-64
2021/07/01 06:43:35;;;;;;;16.73;11.25;;;;;;;29.12;54.46;100848.75;5078875;28;20207;-64
2021/07/01 06:46:04;;;;;;;15.75;11.38;;;;;;;29.03;53.70;100806.41;5079366;28;20183;-64
2021/07/01 06:48:30;;;;;;;14.57;11.55;;;;;;;28.87;53.49;100814.00;5083085;28;20606;-64
2021/07/01 06:50:58;;;;;;;16.10;11.90;;;;;;;29.38;53.88;100852.19;5079739;28;20209;-63
2021/07/01 06:53:25;;;;;;;14.48;11.35;;;;;;;29.33;52.65;100816.00;5080519;28;20199;-64
2021/07/01 06:55:51;;;;;;;14.65;11.40;;;;;;;29.72;52.05;100849.28;5089279;28;20244;-64
2021/07/01 06:58:18;;;;;;;17.08;11.95;;;;;;;29.53;52.88;100851.59;5082068;28;20656;-64
2021/07/01 07:00:44;;;;;;;13.93;11.15;;;;;;;29.33;52.49;100798.13;5079283;28;20372;-64
2021/07/01 07:03:16;;;;;;;7.65;6.85;;;;;;;29.71;54.87;100844.88;5082436;28;20575;-67
2021/07/01 07:05:42;;;;;;;9.50;8.40;;;;;;;29.77;53.38;100808.34;5077165;28;20179;-67
2021/07/01 07:08:13;;;;;;;15.80;11.20;;;;;;;30.13;51.33;100841.38;5082321;28;20614;-63
2021/07/01 07:10:40;;;;;;;15.02;10.90;;;;;;;30.03;52.15;100828.91;5075149;28;20186;-66
2021/07/01 07:13:06;;;;;;;33.50;12.27;;;;;;;29.99;52.07;100793.47;5075442;28;20178;-66
2021/07/01 07:15:33;;;;;;;17.77;11.80;;;;;;;30.38;50.67;100835.97;5075793;28;20188;-66
2021/07/01 07:18:20;;;;;;;13.45;11.13;;;;;;;30.23;51.52;100839.53;5079369;28;20686;-66
2021/07/01 07:20:51;;;;;;;12.85;11.25;;;;;;;30.50;51.36;100842.91;5073552;28;20245;-66
2021/07/01 07:23:19;;;;;;;13.95;11.10;;;;;;;30.33;51.35;100837.69;5073188;28;20206;-66
2021/07/01 07:25:47;;;;;;;15.38;11.43;;;;;;;30.48;51.37;100846.31;5081615;28;20187;-66
2021/07/01 07:28:12;;;;;;;17.10;11.10;;;;;;;30.40;50.86;100816.91;5084666;28;20249;-66
2021/07/01 07:30:39;;;;;;;16.65;11.43;;;;;;;30.77;50.49;100835.59;5081421;28;20717;-66
2021/07/01 07:33:07;;;;;;;18.50;12.43;;;;;;;30.61;49.56;100839.69;5067036;28;20241;-66
2021/07/01 07:35:34;;;;;;;13.95;12.15;;;;;;;30.75;49.95;100841.09;5080672;28;20243;-66
2021/07/01 07:38:00;;;;;;;15.30;12.27;;;;;;;30.77;49.88;100844.91;5063602;28;21152;-66
2021/07/01 07:40:28;;;;;;;14.35;11.80;;;;;;;30.63;49.77;100826.38;5085081;28;20179;-66
2021/07/01 07:42:55;;;;;;;15.95;12.52;;;;;;;30.68;50.45;100834.03;5084052;28;20641;-67
2021/07/01 07:45:21;;;;;;;17.80;12.23;;;;;;;30.48;50.34;100779.78;5080002;28;20221;-68
2021/07/01 07:47:46;;;;;;;20.85;12.38;;;;;;;30.68;49.14;100776.81;5061877;28;20183;-65
2021/07/01 07:50:14;;;;;;;15.77;12.25;;;;;;;31.06;48.98;100819.81;5075331;28;20198;-70
2021/07/01 07:52:45;;;;;;;17.70;11.90;;;;;;;31.17;48.48;100808.72;5064669;28;20705;-70
2021/07/01 07:55:14;;;;;;;15.75;11.85;;;;;;;31.09;48.10;100762.19;5081624;28;20194;-70
2021/07/01 07:57:42;;;;;;;16.42;12.35;;;;;;;31.52;47.31;100822.13;5069489;28;20621;-68
2021/07/01 08:00:09;;;;;;;13.93;12.32;;;;;;;31.26;47.51;100790.25;5075047;28;20309;-68
2021/07/01 08:02:52;;;;;;;19.75;12.05;;;;;;;31.12;48.03;100789.66;5074330;28;20326;-67
2021/07/01 08:05:23;;;;;;;19.13;12.50;;;;;;;31.44;47.88;100827.13;5064245;28;20636;-65
2021/07/01 08:07:50;;;;;;;16.80;12.45;;;;;;;31.30;47.59;100793.50;5070001;28;20687;-67
2021/07/01 08:10:18;;;;;;;12.88;11.25;;;;;;;31.59;47.18;100818.50;5073411;28;20217;-64
2021/07/01 08:12:49;;;;;;;21.33;12.45;;;;;;;31.74;46.99;100818.50;5081855;28;20172;-60
2021/07/01 08:15:18;;;;;;;15.38;11.48;;;;;;;31.78;46.94;100807.41;5078101;28;20236;-68
2021/07/01 08:17:46;;;;;;;17.63;11.63;;;;;;;31.76;46.97;100812.19;5075741;28;20188;-68
2021/07/01 08:20:17;;;;;;;25.15;12.05;;;;;;;31.64;46.93;100783.16;5075677;28;20258;-73
2021/07/01 08:22:45;;;;;;;13.85;11.07;;;;;;;31.77;46.09;100773.59;5075713;28;20211;-66
2021/07/01 08:25:12;;;;;;;14.85;11.13;;;;;;;32.05;45.83;100814.22;5070913;28;20290;-66
2021/07/01 08:27:38;;;;;;;15.20;10.98;;;;;;;31.96;45.47;100805.47;5077704;28;20197;-65
2021/07/01 08:30:05;;;;;;;13.63;10.55;;;;;;;32.13;45.52;100811.34;5074049;28;20539;-66
2021/07/01 08:32:32;;;;;;;12.88;11.30;;;;;;;32.02;45.02;100769.53;5079568;28;20597;-64
2021/07/01 08:35:01;;;;;;;14.75;11.70;;;;;;;32.46;44.92;100810.09;5085256;28;20244;-65
2021/07/01 08:37:29;;;;;;;14.98;11.07;;;;;;;32.49;44.88;100803.97;5069781;28;20475;-64
2021/07/01 08:39:58;;;;;;;12.95;11.52;;;;;;;32.53;44.43;100800.69;5069123;28;20224;-61
2021/07/01 08:42:26;;;;;;;17.63;11.88;;;;;;;32.59;44.31;100807.75;5079940;28;20683;-64
2021/07/01 08:45:03;;;;;;;18.77;11.63;;;;;;;32.71;43.87;100803.06;5084115;28;20199;-64
2021/07/01 08:47:33;;;;;;;13.25;11.00;;;;;;;32.54;43.89;100802.97;5076077;28;20661;-68
2021/07/01 08:50:05;;;;;;;16.17;12.00;;;;;;;32.57;44.36;100790.34;5081359;28;20772;-68
2021/07/01 08:52:55;;;;;;;13.82;11.02;;;;;;;32.68;43.78;100789.13;5074300;28;20179;-67
2021/07/01 08:55:25;;;;;;;14.57;11.75;;;;;;;32.73;43.89;100800.41;5063124;28;20298;-66
2021/07/01 08:57:54;;;;;;;14.13;11.18;;;;;;;32.53;44.19;100758.44;5077105;28;20262;-65
2021/07/01 09:00:20;;;;;;;16.00;11.95;;;;;;;32.36;44.40;100749.75;5070558;28;20584;-64
2021/07/01 09:03:03;;;;;;;14.82;11.93;;;;;;;32.63;44.38;100790.13;5081827;28;20194;-64
2021/07/01 09:05:30;;;;;;;14.93;11.52;;;;;;;32.60;45.04;100788.44;5072725;28;20641;-65
2021/07/01 09:07:58;;;;;;;27.77;12.23;;;;;;;32.70;44.92;100789.31;5087358;28;20186;-67
2021/07/01 09:10:25;;;;;;;13.20;11.88;;;;;;;32.72;44.79;100784.53;5078331;28;20180;-65
2021/07/01 09:13:03;;;;;;;15.32;11.55;;;;;;;32.63;44.57;100779.41;5071640;28;20179;-66
2021/07/01 09:15:30;;;;;;;16.65;11.43;;;;;;;32.69;44.70;100777.06;5079186;28;20237;-67
2021/07/01 09:17:56;;;;;;;14.57;11.95;;;;;;;32.78;43.54;100773.59;5080004;28;20171;-66
2021/07/01 09:20:34;;;;;;;15.88;11.43;;;;;;;32.54;44.68;100736.22;5078177;28;20832;-65
2021/07/01 09:23:01;;;;;;;15.68;11.30;;;;;;;32.80;44.60;100775.91;5074049;28;20202;-66
2021/07/01 09:25:27;;;;;;;16.05;11.25;;;;;;;32.94;44.38;100780.75;5085997;28;20597;-66
2021/07/01 09:27:55;;;;;;;16.83;11.45;;;;;;;33.08;43.99;100782.00;5078790;28;20182;-66
2021/07/01 09:30:27;;;;;;;16.02;11.02;;;;;;;33.01;43.90;100782.81;5071497;28;20192;-67
2021/07/01 09:33:02;;;;;;;13.10;10.88;;;;;;;32.96;44.32;100769.44;5078336;28;20293;-66
2021/07/01 09:35:30;;;;;;;16.13;11.20;;;;;;;32.72;44.19;100734.97;5075249;28;20390;-66
2021/07/01 09:38:00;;;;;;;14.88;11.45;;;;;;;32.75;44.56;100765.38;5078846;28;20202;-67
2021/07/01 09:40:26;;;;;;;17.25;11.07;;;;;;;32.67;44.11;100770.41;5085488;28;20670;-67
2021/07/01 09:42:59;;;;;;;12.73;10.07;;;;;;;32.31;43.70;100719.16;5074638;28;20229;-67
2021/07/01 09:45:26;;;;;;;15.63;10.15;;;;;;;32.35;43.90;100725.25;5075678;28;20265;-66
2021/07/01 09:48:00;;;;;;;14.98;10.07;;;;;;;32.76;43.90;100755.41;5074047;28;20179;-66
2021/07/01 09:50:26;;;;;;;15.68;9.52;;;;;;;32.87;42.84;100752.84;5084356;28;20233;-66
2021/07/01 09:52:55;;;;;;;10.75;8.55;;;;;;;32.83;42.65;100749.66;5077726;28;20835;-66
2021/07/01 09:55:26;;;;;;;15.10;9.07;;;;;;;32.72;42.69;100715.66;5082969;28;20190;-66
2021/07/01 09:57:54;;;;;;;11.05;9.00;;;;;;;32.57;42.96;100703.50;5080960;28;20182;-62
2021/07/01 10:00:20;;;;;;;15.18;9.27;;;;;;;33.04;42.86;100747.19;5073101;28;20187;-66
2021/07/01 10:03:00;;;;;;;16.02;9.32;;;;;;;32.72;43.44;100692.69;5087891;28;20292;-66
2021/07/01 10:05:28;;;;;;;12.75;8.63;;;;;;;32.87;43.22;100718.41;5078735;28;20178;-66
2021/07/01 10:07:54;;;;;;;16.73;8.93;;;;;;;33.18;43.03;100736.16;5073921;28;20183;-66
2021/07/01 10:10:20;;;;;;;11.48;8.35;;;;;;;33.11;42.75;100734.13;5082281;28;20570;-65
2021/07/01 10:12:53;;;;;;;18.77;8.80;;;;;;;33.15;42.82;100732.34;5077308;28;20386;-66
2021/07/01 10:15:31;;;;;;;12.88;8.35;;;;;;;33.17;42.00;100714.53;5079666;28;20180;-66
2021/07/01 10:18:11;;;;;;;12.32;7.75;;;;;;;33.17;41.76;100712.41;5081489;28;20682;-67
2021/07/01 10:20:42;;;;;;;10.88;7.80;;;;;;;33.06;41.65;100712.91;5074135;28;20607;-66
2021/07/01 10:23:38;;;;;;;12.95;7.95;;;;;;;33.20;42.34;100696.88;5075080;28;20696;-66
2021/07/01 10:26:12;;;;;;;20.17;7.93;;;;;;;33.01;41.69;100650.75;5075758;28;20224;-65
2021/07/01 10:28:38;;;;;;;11.77;7.40;;;;;;;33.60;41.81;100705.31;5078248;28;20180;-66
2021/07/01 10:31:11;;;;;;;13.77;7.68;;;;;;;33.70;41.28;100700.41;5073043;28;20206;-66
2021/07/01 10:33:39;;;;;;;10.98;7.07;;;;;;;33.55;41.00;100689.09;5083526;28;20167;-66
2021/07/01 10:36:13;;;;;;;13.63;8.02;;;;;;;33.44;40.96;100660.88;5078343;28;20180;-66
2021/07/01 10:38:46;;;;;;;14.45;7.43;;;;;;;33.86;40.83;100696.03;5079146;28;20671;-66
2021/07/01 10:41:28;;;;;;;12.32;7.35;;;;;;;33.89;39.30;100683.34;5078100;28;20266;-66
2021/07/01 10:43:54;;;;;;;11.38;7.53;;;;;;;33.94;38.32;100676.59;5078166;28;20207;-65
2021/07/01 10:46:20;;;;;;;15.93;7.15;;;;;;;33.89;37.48;100648.84;5079507;28;20183;-66
2021/07/01 10:48:56;;;;;;;17.38;7.53;;;;;;;34.02;39.68;100668.59;5077497;28;20182;-66
2021/07/01 10:51:23;;;;;;;16.73;7.15;;;;;;;34.05;39.71;100668.19;5071337;28;20285;-66
2021/07/01 10:53:49;;;;;;;16.45;7.47;;;;;;;34.29;39.41;100667.28;5075289;28;20176;-66
2021/07/01 10:56:17;;;;;;;12.68;7.15;;;;;;;34.29;39.05;100663.66;5082077;28;20661;-66
2021/07/01 10:58:43;;;;;;;11.85;6.65;;;;;;;34.40;38.04;100655.22;5069563;28;20266;-65
2021/07/01 11:01:24;;;;;;;12.32;7.35;;;;;;;34.07;38.32;100659.72;5070908;28;20183;-66
2021/07/01 11:04:09;;;;;;;13.10;6.78;;;;;;;33.98;38.49;100656.78;5081537;28;20187;-66
2021/07/01 11:06:37;;;;;;;15.75;6.88;;;;;;;34.14;37.37;100649.47;5078133;28;20187;-65
2021/07/01 11:09:05;;;;;;;13.93;7.32;;;;;;;34.15;38.58;100648.84;5081397;28;20264;-65
2021/07/01 11:11:34;;;;;;;14.27;7.60;;;;;;;33.91;38.51;100661.28;5069854;28;20187;-66
2021/07/01 11:14:05;;;;;;;10.43;6.85;;;;;;;33.02;39.28;100556.78;5079276;28;20602;-66
2021/07/01 11:16:58;;;;;;;12.75;6.75;;;;;;;33.52;39.44;100645.06;5079131;28;20670;-66